Terminal Aerodrome Forecast
Issued by NWS Knoxville/Tri Cities, TN

Home | Current Version | Previous Version | Text Only | Print | Product List | Glossary On
Versions: 1 2 3 4 5 6 7 8 9 10 11 12 13 14
000
FTUS44 KMRX 040545
TAFCHA
TAF
KCHA 040545Z 0406/0506 04005KT 3SM -RA OVC050
     FM040900 10006KT 2SM -RA OVC007=

USA.gov is the U.S. government's official web portal to all federal, state and local government web resources and services.